Esquel, Esquel Airport (SAVE)

NameEsquel Airport
CityEsquel
CountryArgentina
ICAOSAVE
IATAEQS
Altitude799 m
CoordinatesGoogle Map
Live Air TrafficLiveATC.net
METARSAVE 241746Z 25005KT 4000 BKN027 05/M01 Q1001 RESN
2017-08-24 17:46:00 Wind: West-Southwest (250°) 2.57 m/s - Visibility: 4000 m - Temperature: 5 °C - Dew point: -1 °C - Humidity: 65.5% - Pressure: 1001 hPa
Statistics

The table below shows the detailed information of all flights to/from Esquel, Esquel Airport (SAVE).